sensor_id;sensor_type;location;lat;lon;timestamp;temperature;humidity
18779;DHT22;9518;51.720;14.384;2023-10-31T00:02:12;11.20;99.90
18779;DHT22;9518;51.720;14.384;2023-10-31T00:04:39;11.20;99.90
18779;DHT22;9518;51.720;14.384;2023-10-31T00:07:07;11.20;99.90
18779;DHT22;9518;51.720;14.384;2023-10-31T00:09:34;11.20;99.90
18779;DHT22;9518;51.720;14.384;2023-10-31T00:12:01;11.20;99.90
18779;DHT22;9518;51.720;14.384;2023-10-31T00:14:28;11.20;99.90
18779;DHT22;9518;51.720;14.384;2023-10-31T00:16:55;11.20;99.90
18779;DHT22;9518;51.720;14.384;2023-10-31T00:19:23;11.20;99.90
18779;DHT22;9518;51.720;14.384;2023-10-31T00:21:50;11.20;99.90
18779;DHT22;9518;51.720;14.384;2023-10-31T00:24:18;11.30;99.90
18779;DHT22;9518;51.720;14.384;2023-10-31T00:26:45;11.30;99.90
18779;DHT22;9518;51.720;14.384;2023-10-31T00:29:12;11.30;99.90
18779;DHT22;9518;51.720;14.384;2023-10-31T00:31:43;11.30;99.90
18779;DHT22;9518;51.720;14.384;2023-10-31T00:34:10;11.20;99.90
18779;DHT22;9518;51.720;14.384;2023-10-31T00:36:39;11.20;99.90
18779;DHT22;9518;51.720;14.384;2023-10-31T00:39:06;11.30;99.90
18779;DHT22;9518;51.720;14.384;2023-10-31T00:41:33;11.30;99.90
18779;DHT22;9518;51.720;14.384;2023-10-31T00:44:00;11.20;99.90
18779;DHT22;9518;51.720;14.384;2023-10-31T00:46:27;11.20;99.90
18779;DHT22;9518;51.720;14.384;2023-10-31T00:48:54;11.20;99.90
18779;DHT22;9518;51.720;14.384;2023-10-31T00:51:21;11.20;99.90
18779;DHT22;9518;51.720;14.384;2023-10-31T00:53:50;11.20;99.90
18779;DHT22;9518;51.720;14.384;2023-10-31T00:56:17;11.20;99.90
18779;DHT22;9518;51.720;14.384;2023-10-31T00:58:44;11.30;99.90
18779;DHT22;9518;51.720;14.384;2023-10-31T01:01:11;11.30;99.90
18779;DHT22;9518;51.720;14.384;2023-10-31T01:03:38;11.30;99.90
18779;DHT22;9518;51.720;14.384;2023-10-31T01:06:05;11.30;99.90
18779;DHT22;9518;51.720;14.384;2023-10-31T01:08:32;11.30;99.90
18779;DHT22;9518;51.720;14.384;2023-10-31T01:11:01;11.30;99.90
18779;DHT22;9518;51.720;14.384;2023-10-31T01:13:29;11.20;99.90
18779;DHT22;9518;51.720;14.384;2023-10-31T01:15:56;11.20;99.90
18779;DHT22;9518;51.720;14.384;2023-10-31T01:18:23;11.20;99.90
18779;DHT22;9518;51.720;14.384;2023-10-31T01:20:51;11.20;99.90
18779;DHT22;9518;51.720;14.384;2023-10-31T01:23:18;11.10;99.90
18779;DHT22;9518;51.720;14.384;2023-10-31T01:25:45;11.10;99.90
18779;DHT22;9518;51.720;14.384;2023-10-31T01:28:13;11.20;99.90
18779;DHT22;9518;51.720;14.384;2023-10-31T01:30:40;11.20;99.90
18779;DHT22;9518;51.720;14.384;2023-10-31T01:33:09;11.30;99.90
18779;DHT22;9518;51.720;14.384;2023-10-31T01:35:36;11.30;99.90
18779;DHT22;9518;51.720;14.384;2023-10-31T01:38:03;11.20;99.90
18779;DHT22;9518;51.720;14.384;2023-10-31T01:40:30;11.20;99.90
18779;DHT22;9518;51.720;14.384;2023-10-31T01:42:57;11.20;99.90
18779;DHT22;9518;51.720;14.384;2023-10-31T01:45:26;11.20;99.90
18779;DHT22;9518;51.720;14.384;2023-10-31T01:47:53;11.10;99.90
18779;DHT22;9518;51.720;14.384;2023-10-31T01:50:20;11.10;99.90
18779;DHT22;9518;51.720;14.384;2023-10-31T01:52:47;11.10;99.90
18779;DHT22;9518;51.720;14.384;2023-10-31T01:55:15;11.00;99.90
18779;DHT22;9518;51.720;14.384;2023-10-31T01:57:44;11.00;99.90
18779;DHT22;9518;51.720;14.384;2023-10-31T02:00:13;11.00;99.90
18779;DHT22;9518;51.720;14.384;2023-10-31T02:02:42;11.00;99.90
18779;DHT22;9518;51.720;14.384;2023-10-31T02:05:11;11.00;99.90
18779;DHT22;9518;51.720;14.384;2023-10-31T02:07:38;11.00;99.90
18779;DHT22;9518;51.720;14.384;2023-10-31T02:10:06;11.00;99.90
18779;DHT22;9518;51.720;14.384;2023-10-31T02:12:34;11.00;99.90
18779;DHT22;9518;51.720;14.384;2023-10-31T02:15:02;11.00;99.90
18779;DHT22;9518;51.720;14.384;2023-10-31T02:17:30;10.90;99.90
18779;DHT22;9518;51.720;14.384;2023-10-31T02:19:58;11.00;99.90
18779;DHT22;9518;51.720;14.384;2023-10-31T02:22:27;11.00;99.90
18779;DHT22;9518;51.720;14.384;2023-10-31T02:24:54;10.90;99.90
18779;DHT22;9518;51.720;14.384;2023-10-31T02:27:21;11.00;99.90
18779;DHT22;9518;51.720;14.384;2023-10-31T02:29:49;10.90;99.90
18779;DHT22;9518;51.720;14.384;2023-10-31T02:32:16;10.90;99.90
18779;DHT22;9518;51.720;14.384;2023-10-31T02:34:45;10.90;99.90
18779;DHT22;9518;51.720;14.384;2023-10-31T02:37:12;10.90;99.90
18779;DHT22;9518;51.720;14.384;2023-10-31T02:39:42;11.00;99.90
18779;DHT22;9518;51.720;14.384;2023-10-31T02:42:09;10.90;99.90
18779;DHT22;9518;51.720;14.384;2023-10-31T02:44:36;11.00;99.90
18779;DHT22;9518;51.720;14.384;2023-10-31T02:47:04;10.90;99.90
18779;DHT22;9518;51.720;14.384;2023-10-31T02:49:31;10.90;99.90
18779;DHT22;9518;51.720;14.384;2023-10-31T02:51:58;10.90;99.90
18779;DHT22;9518;51.720;14.384;2023-10-31T02:54:25;10.90;99.90
18779;DHT22;9518;51.720;14.384;2023-10-31T02:56:54;10.90;99.90
18779;DHT22;9518;51.720;14.384;2023-10-31T02:59:21;10.90;99.90
18779;DHT22;9518;51.720;14.384;2023-10-31T03:01:48;10.90;99.90
18779;DHT22;9518;51.720;14.384;2023-10-31T03:04:16;10.90;99.90
18779;DHT22;9518;51.720;14.384;2023-10-31T03:06:46;10.90;99.90
18779;DHT22;9518;51.720;14.384;2023-10-31T03:09:14;10.90;99.90
18779;DHT22;9518;51.720;14.384;2023-10-31T03:11:41;10.90;99.90
18779;DHT22;9518;51.720;14.384;2023-10-31T03:14:09;10.90;99.90
18779;DHT22;9518;51.720;14.384;2023-10-31T03:16:36;10.90;99.90
18779;DHT22;9518;51.720;14.384;2023-10-31T03:19:04;10.90;99.90
18779;DHT22;9518;51.720;14.384;2023-10-31T03:21:31;10.90;99.90
18779;DHT22;9518;51.720;14.384;2023-10-31T03:23:58;10.90;99.90
18779;DHT22;9518;51.720;14.384;2023-10-31T03:26:26;11.00;99.90
18779;DHT22;9518;51.720;14.384;2023-10-31T03:28:56;11.00;99.90
18779;DHT22;9518;51.720;14.384;2023-10-31T03:31:25;11.00;99.90
18779;DHT22;9518;51.720;14.384;2023-10-31T03:33:52;10.90;99.90
18779;DHT22;9518;51.720;14.384;2023-10-31T03:36:19;11.00;99.90
18779;DHT22;9518;51.720;14.384;2023-10-31T03:38:47;11.00;99.90
18779;DHT22;9518;51.720;14.384;2023-10-31T03:41:14;11.10;99.90
18779;DHT22;9518;51.720;14.384;2023-10-31T03:43:42;11.10;99.90
18779;DHT22;9518;51.720;14.384;2023-10-31T03:46:09;11.10;99.90
18779;DHT22;9518;51.720;14.384;2023-10-31T03:48:38;11.30;99.90
18779;DHT22;9518;51.720;14.384;2023-10-31T03:51:05;11.70;99.90
18779;DHT22;9518;51.720;14.384;2023-10-31T03:53:32;11.90;99.90
18779;DHT22;9518;51.720;14.384;2023-10-31T03:55:59;12.20;99.90
18779;DHT22;9518;51.720;14.384;2023-10-31T03:58:26;12.40;99.90
18779;DHT22;9518;51.720;14.384;2023-10-31T04:00:53;12.50;99.90
18779;DHT22;9518;51.720;14.384;2023-10-31T04:03:20;12.50;99.90
18779;DHT22;9518;51.720;14.384;2023-10-31T04:05:49;12.60;99.90
18779;DHT22;9518;51.720;14.384;2023-10-31T04:08:16;12.60;99.90
18779;DHT22;9518;51.720;14.384;2023-10-31T04:10:43;12.50;99.90
18779;DHT22;9518;51.720;14.384;2023-10-31T04:13:10;12.50;99.90
18779;DHT22;9518;51.720;14.384;2023-10-31T04:15:37;12.50;99.90
18779;DHT22;9518;51.720;14.384;2023-10-31T04:18:04;12.50;99.90
18779;DHT22;9518;51.720;14.384;2023-10-31T04:20:31;12.50;99.90
18779;DHT22;9518;51.720;14.384;2023-10-31T04:23:02;12.50;99.90
18779;DHT22;9518;51.720;14.384;2023-10-31T04:25:31;12.50;99.90
18779;DHT22;9518;51.720;14.384;2023-10-31T04:27:58;12.50;99.90
18779;DHT22;9518;51.720;14.384;2023-10-31T04:30:25;12.50;99.90
18779;DHT22;9518;51.720;14.384;2023-10-31T04:32:53;12.50;99.90
18779;DHT22;9518;51.720;14.384;2023-10-31T04:35:20;12.50;99.90
18779;DHT22;9518;51.720;14.384;2023-10-31T04:37:47;12.40;99.90
18779;DHT22;9518;51.720;14.384;2023-10-31T04:40:16;12.40;99.90
18779;DHT22;9518;51.720;14.384;2023-10-31T04:42:47;12.40;99.90
18779;DHT22;9518;51.720;14.384;2023-10-31T04:45:14;12.40;99.90
18779;DHT22;9518;51.720;14.384;2023-10-31T04:47:41;12.30;99.90
18779;DHT22;9518;51.720;14.384;2023-10-31T04:50:09;12.30;99.90
18779;DHT22;9518;51.720;14.384;2023-10-31T04:52:36;12.30;99.90
18779;DHT22;9518;51.720;14.384;2023-10-31T04:55:04;12.30;99.90
18779;DHT22;9518;51.720;14.384;2023-10-31T04:57:32;12.30;99.90
18779;DHT22;9518;51.720;14.384;2023-10-31T05:00:00;12.30;99.90
18779;DHT22;9518;51.720;14.384;2023-10-31T05:02:29;12.30;99.90
18779;DHT22;9518;51.720;14.384;2023-10-31T05:04:56;12.20;99.90
18779;DHT22;9518;51.720;14.384;2023-10-31T05:07:24;12.30;99.90
18779;DHT22;9518;51.720;14.384;2023-10-31T05:09:53;12.30;99.90
18779;DHT22;9518;51.720;14.384;2023-10-31T05:12:20;12.30;99.90
18779;DHT22;9518;51.720;14.384;2023-10-31T05:14:49;12.30;99.90
18779;DHT22;9518;51.720;14.384;2023-10-31T05:17:17;12.30;99.90
18779;DHT22;9518;51.720;14.384;2023-10-31T05:19:44;12.30;99.90
18779;DHT22;9518;51.720;14.384;2023-10-31T05:22:11;12.30;99.90
18779;DHT22;9518;51.720;14.384;2023-10-31T05:24:38;12.20;99.90
18779;DHT22;9518;51.720;14.384;2023-10-31T05:27:05;12.20;99.90
18779;DHT22;9518;51.720;14.384;2023-10-31T05:29:33;12.30;99.90
18779;DHT22;9518;51.720;14.384;2023-10-31T05:32:03;12.20;99.90
18779;DHT22;9518;51.720;14.384;2023-10-31T05:34:30;12.20;99.90
18779;DHT22;9518;51.720;14.384;2023-10-31T05:36:58;12.20;99.90
18779;DHT22;9518;51.720;14.384;2023-10-31T05:39:25;12.20;99.90
18779;DHT22;9518;51.720;14.384;2023-10-31T05:41:52;12.20;99.90
18779;DHT22;9518;51.720;14.384;2023-10-31T05:44:19;12.20;99.90
18779;DHT22;9518;51.720;14.384;2023-10-31T05:46:46;12.20;99.90
18779;DHT22;9518;51.720;14.384;2023-10-31T05:49:14;12.20;99.90
18779;DHT22;9518;51.720;14.384;2023-10-31T05:51:42;12.10;99.90
18779;DHT22;9518;51.720;14.384;2023-10-31T05:54:09;12.10;99.90
18779;DHT22;9518;51.720;14.384;2023-10-31T05:56:36;12.10;99.90
18779;DHT22;9518;51.720;14.384;2023-10-31T05:59:04;12.10;99.90
18779;DHT22;9518;51.720;14.384;2023-10-31T06:01:31;12.10;99.90
18779;DHT22;9518;51.720;14.384;2023-10-31T06:03:58;12.10;99.90
18779;DHT22;9518;51.720;14.384;2023-10-31T06:06:32;12.00;99.90
18779;DHT22;9518;51.720;14.384;2023-10-31T06:08:59;12.10;99.90
18779;DHT22;9518;51.720;14.384;2023-10-31T06:11:26;12.00;99.90
18779;DHT22;9518;51.720;14.384;2023-10-31T06:13:55;12.10;99.90
18779;DHT22;9518;51.720;14.384;2023-10-31T06:16:25;12.00;99.90
18779;DHT22;9518;51.720;14.384;2023-10-31T06:18:52;12.00;99.90
18779;DHT22;9518;51.720;14.384;2023-10-31T06:21:19;12.00;99.90
18779;DHT22;9518;51.720;14.384;2023-10-31T06:23:47;12.10;99.90
18779;DHT22;9518;51.720;14.384;2023-10-31T06:26:14;12.10;99.90
18779;DHT22;9518;51.720;14.384;2023-10-31T06:28:41;12.10;99.90
18779;DHT22;9518;51.720;14.384;2023-10-31T06:31:09;12.10;99.90
18779;DHT22;9518;51.720;14.384;2023-10-31T06:33:36;12.10;99.90
18779;DHT22;9518;51.720;14.384;2023-10-31T06:36:04;12.10;99.90
18779;DHT22;9518;51.720;14.384;2023-10-31T06:38:32;12.10;99.90
18779;DHT22;9518;51.720;14.384;2023-10-31T06:41:01;12.20;99.90
18779;DHT22;9518;51.720;14.384;2023-10-31T06:43:28;12.10;99.90
18779;DHT22;9518;51.720;14.384;2023-10-31T06:45:56;12.10;99.90
18779;DHT22;9518;51.720;14.384;2023-10-31T06:48:26;12.10;99.90
18779;DHT22;9518;51.720;14.384;2023-10-31T06:50:53;12.20;99.90
18779;DHT22;9518;51.720;14.384;2023-10-31T06:53:20;12.20;99.90
18779;DHT22;9518;51.720;14.384;2023-10-31T06:55:47;12.20;99.90
18779;DHT22;9518;51.720;14.384;2023-10-31T06:58:18;12.20;99.90
18779;DHT22;9518;51.720;14.384;2023-10-31T07:00:45;12.20;99.90
18779;DHT22;9518;51.720;14.384;2023-10-31T07:03:14;12.20;99.90
18779;DHT22;9518;51.720;14.384;2023-10-31T07:05:42;12.20;99.90
18779;DHT22;9518;51.720;14.384;2023-10-31T07:08:09;12.20;99.90
18779;DHT22;9518;51.720;14.384;2023-10-31T07:10:36;12.30;99.90
18779;DHT22;9518;51.720;14.384;2023-10-31T07:13:04;12.30;99.90
18779;DHT22;9518;51.720;14.384;2023-10-31T07:15:33;12.30;99.90
18779;DHT22;9518;51.720;14.384;2023-10-31T07:18:04;12.30;99.90
18779;DHT22;9518;51.720;14.384;2023-10-31T07:20:33;12.40;99.90
18779;DHT22;9518;51.720;14.384;2023-10-31T07:23:01;12.30;99.90
18779;DHT22;9518;51.720;14.384;2023-10-31T07:25:29;12.30;99.90
18779;DHT22;9518;51.720;14.384;2023-10-31T07:27:59;12.30;99.90
18779;DHT22;9518;51.720;14.384;2023-10-31T07:30:26;12.40;99.90
18779;DHT22;9518;51.720;14.384;2023-10-31T07:32:55;12.40;99.90
18779;DHT22;9518;51.720;14.384;2023-10-31T07:35:22;12.40;99.90
18779;DHT22;9518;51.720;14.384;2023-10-31T07:37:49;12.40;99.90
18779;DHT22;9518;51.720;14.384;2023-10-31T07:40:16;12.40;99.90
18779;DHT22;9518;51.720;14.384;2023-10-31T07:42:43;12.40;99.90
18779;DHT22;9518;51.720;14.384;2023-10-31T07:45:11;12.40;99.90
18779;DHT22;9518;51.720;14.384;2023-10-31T07:47:38;12.40;99.90
18779;DHT22;9518;51.720;14.384;2023-10-31T07:50:08;12.40;99.90
18779;DHT22;9518;51.720;14.384;2023-10-31T07:52:35;12.50;99.90
18779;DHT22;9518;51.720;14.384;2023-10-31T07:55:02;12.50;99.90
18779;DHT22;9518;51.720;14.384;2023-10-31T07:57:29;12.50;99.90
18779;DHT22;9518;51.720;14.384;2023-10-31T07:59:56;12.50;99.90
18779;DHT22;9518;51.720;14.384;2023-10-31T08:02:23;12.50;99.90
18779;DHT22;9518;51.720;14.384;2023-10-31T08:04:51;12.60;99.90
18779;DHT22;9518;51.720;14.384;2023-10-31T08:07:19;12.70;99.90
18779;DHT22;9518;51.720;14.384;2023-10-31T08:09:49;12.70;99.90
18779;DHT22;9518;51.720;14.384;2023-10-31T08:12:16;12.80;99.90
18779;DHT22;9518;51.720;14.384;2023-10-31T08:14:43;12.80;99.90
18779;DHT22;9518;51.720;14.384;2023-10-31T08:17:10;12.80;99.90
18779;DHT22;9518;51.720;14.384;2023-10-31T08:19:37;12.80;99.90
18779;DHT22;9518;51.720;14.384;2023-10-31T08:22:03;12.80;99.90
18779;DHT22;9518;51.720;14.384;2023-10-31T08:24:32;12.80;99.90
18779;DHT22;9518;51.720;14.384;2023-10-31T08:27:01;12.80;99.90
18779;DHT22;9518;51.720;14.384;2023-10-31T08:29:28;12.80;99.90
18779;DHT22;9518;51.720;14.384;2023-10-31T08:31:56;12.80;99.90
18779;DHT22;9518;51.720;14.384;2023-10-31T08:34:24;12.80;99.90
18779;DHT22;9518;51.720;14.384;2023-10-31T08:36:51;12.80;99.90
18779;DHT22;9518;51.720;14.384;2023-10-31T08:39:18;12.80;99.90
18779;DHT22;9518;51.720;14.384;2023-10-31T08:41:54;12.80;99.90
18779;DHT22;9518;51.720;14.384;2023-10-31T08:44:22;12.80;99.90
18779;DHT22;9518;51.720;14.384;2023-10-31T08:46:49;12.80;99.90
18779;DHT22;9518;51.720;14.384;2023-10-31T08:49:18;13.00;99.90
18779;DHT22;9518;51.720;14.384;2023-10-31T08:51:45;13.00;99.90
18779;DHT22;9518;51.720;14.384;2023-10-31T08:54:12;13.00;99.90
18779;DHT22;9518;51.720;14.384;2023-10-31T08:56:39;13.00;99.90
18779;DHT22;9518;51.720;14.384;2023-10-31T08:59:08;13.00;99.90
18779;DHT22;9518;51.720;14.384;2023-10-31T09:01:35;13.00;99.90
18779;DHT22;9518;51.720;14.384;2023-10-31T09:04:02;13.00;99.90
18779;DHT22;9518;51.720;14.384;2023-10-31T09:06:30;13.00;99.90
18779;DHT22;9518;51.720;14.384;2023-10-31T09:08:57;13.10;99.90
18779;DHT22;9518;51.720;14.384;2023-10-31T09:11:24;13.20;99.90
18779;DHT22;9518;51.720;14.384;2023-10-31T09:13:51;13.30;99.90
18779;DHT22;9518;51.720;14.384;2023-10-31T09:16:20;13.50;99.90
18779;DHT22;9518;51.720;14.384;2023-10-31T09:18:47;13.70;99.90
18779;DHT22;9518;51.720;14.384;2023-10-31T09:21:14;13.90;99.90
18779;DHT22;9518;51.720;14.384;2023-10-31T09:23:41;14.10;99.90
18779;DHT22;9518;51.720;14.384;2023-10-31T09:26:08;14.20;99.90
18779;DHT22;9518;51.720;14.384;2023-10-31T09:28:36;14.10;99.90
18779;DHT22;9518;51.720;14.384;2023-10-31T09:31:04;14.20;99.90
18779;DHT22;9518;51.720;14.384;2023-10-31T09:33:32;14.10;99.90
18779;DHT22;9518;51.720;14.384;2023-10-31T09:35:59;14.00;99.90
18779;DHT22;9518;51.720;14.384;2023-10-31T09:38:27;14.00;99.90
18779;DHT22;9518;51.720;14.384;2023-10-31T09:40:54;13.90;99.90
18779;DHT22;9518;51.720;14.384;2023-10-31T09:43:21;14.00;99.90
18779;DHT22;9518;51.720;14.384;2023-10-31T09:45:49;14.00;99.90
18779;DHT22;9518;51.720;14.384;2023-10-31T09:48:17;14.00;99.90
18779;DHT22;9518;51.720;14.384;2023-10-31T09:50:46;14.10;99.90
18779;DHT22;9518;51.720;14.384;2023-10-31T09:53:14;14.00;99.90
18779;DHT22;9518;51.720;14.384;2023-10-31T09:55:42;13.90;99.90
18779;DHT22;9518;51.720;14.384;2023-10-31T09:58:09;13.80;99.90
18779;DHT22;9518;51.720;14.384;2023-10-31T10:00:37;13.80;99.90
18779;DHT22;9518;51.720;14.384;2023-10-31T10:03:06;13.80;99.90
18779;DHT22;9518;51.720;14.384;2023-10-31T10:05:35;13.70;99.90
18779;DHT22;9518;51.720;14.384;2023-10-31T10:08:06;13.70;99.90
18779;DHT22;9518;51.720;14.384;2023-10-31T10:10:33;13.60;99.90
18779;DHT22;9518;51.720;14.384;2023-10-31T10:13:02;13.60;99.90
18779;DHT22;9518;51.720;14.384;2023-10-31T10:15:30;13.70;99.90
18779;DHT22;9518;51.720;14.384;2023-10-31T10:17:58;13.70;99.90
18779;DHT22;9518;51.720;14.384;2023-10-31T10:20:26;13.70;99.90
18779;DHT22;9518;51.720;14.384;2023-10-31T10:22:53;14.00;99.90
18779;DHT22;9518;51.720;14.384;2023-10-31T10:25:23;14.20;99.90
18779;DHT22;9518;51.720;14.384;2023-10-31T10:27:50;14.40;99.90
18779;DHT22;9518;51.720;14.384;2023-10-31T10:30:17;14.40;99.90
18779;DHT22;9518;51.720;14.384;2023-10-31T10:32:44;14.30;99.90
18779;DHT22;9518;51.720;14.384;2023-10-31T10:35:12;14.40;99.90
18779;DHT22;9518;51.720;14.384;2023-10-31T10:37:41;14.50;99.90
18779;DHT22;9518;51.720;14.384;2023-10-31T10:40:10;14.50;99.90
18779;DHT22;9518;51.720;14.384;2023-10-31T10:42:45;14.60;99.90
18779;DHT22;9518;51.720;14.384;2023-10-31T10:45:15;14.80;99.90
18779;DHT22;9518;51.720;14.384;2023-10-31T10:47:46;14.90;99.90
18779;DHT22;9518;51.720;14.384;2023-10-31T10:50:14;14.90;99.90
18779;DHT22;9518;51.720;14.384;2023-10-31T10:52:44;14.80;98.90
18779;DHT22;9518;51.720;14.384;2023-10-31T10:55:20;14.80;99.00
18779;DHT22;9518;51.720;14.384;2023-10-31T10:58:01;14.80;98.60
18779;DHT22;9518;51.720;14.384;2023-10-31T11:00:31;14.90;98.70
18779;DHT22;9518;51.720;14.384;2023-10-31T11:02:59;14.80;97.70
18779;DHT22;9518;51.720;14.384;2023-10-31T11:05:27;14.70;97.40
18779;DHT22;9518;51.720;14.384;2023-10-31T11:07:57;14.50;97.70
18779;DHT22;9518;51.720;14.384;2023-10-31T11:10:25;14.40;97.90
18779;DHT22;9518;51.720;14.384;2023-10-31T11:12:57;14.30;97.90
18779;DHT22;9518;51.720;14.384;2023-10-31T11:15:28;14.20;97.80
18779;DHT22;9518;51.720;14.384;2023-10-31T11:17:55;14.20;96.50
18779;DHT22;9518;51.720;14.384;2023-10-31T11:20:24;14.10;95.80
18779;DHT22;9518;51.720;14.384;2023-10-31T11:22:56;14.10;95.60
18779;DHT22;9518;51.720;14.384;2023-10-31T11:25:24;14.10;97.30
18779;DHT22;9518;51.720;14.384;2023-10-31T11:27:51;14.20;96.70
18779;DHT22;9518;51.720;14.384;2023-10-31T11:30:29;14.20;96.60
18779;DHT22;9518;51.720;14.384;2023-10-31T11:32:58;14.20;96.50
18779;DHT22;9518;51.720;14.384;2023-10-31T11:35:29;14.20;95.90
18779;DHT22;9518;51.720;14.384;2023-10-31T11:38:01;14.20;96.40
18779;DHT22;9518;51.720;14.384;2023-10-31T11:40:35;14.40;96.90
18779;DHT22;9518;51.720;14.384;2023-10-31T11:43:03;14.70;96.30
18779;DHT22;9518;51.720;14.384;2023-10-31T11:48:49;14.90;96.00
18779;DHT22;9518;51.720;14.384;2023-10-31T11:51:17;15.00;96.10
18779;DHT22;9518;51.720;14.384;2023-10-31T11:53:44;14.90;94.80
18779;DHT22;9518;51.720;14.384;2023-10-31T11:56:12;14.80;95.50
18779;DHT22;9518;51.720;14.384;2023-10-31T11:58:39;14.80;95.10
18779;DHT22;9518;51.720;14.384;2023-10-31T12:01:08;14.70;94.10
18779;DHT22;9518;51.720;14.384;2023-10-31T12:03:40;14.80;94.60
18779;DHT22;9518;51.720;14.384;2023-10-31T12:06:09;14.90;95.00
18779;DHT22;9518;51.720;14.384;2023-10-31T12:08:38;14.80;93.60
18779;DHT22;9518;51.720;14.384;2023-10-31T12:11:07;14.80;93.70
18779;DHT22;9518;51.720;14.384;2023-10-31T12:13:36;14.80;93.50
18779;DHT22;9518;51.720;14.384;2023-10-31T12:16:04;14.70;93.10
18779;DHT22;9518;51.720;14.384;2023-10-31T12:18:31;14.70;93.20
18779;DHT22;9518;51.720;14.384;2023-10-31T12:20:58;14.80;93.40
18779;DHT22;9518;51.720;14.384;2023-10-31T12:23:27;14.70;94.50
18779;DHT22;9518;51.720;14.384;2023-10-31T12:25:54;14.50;93.50
18779;DHT22;9518;51.720;14.384;2023-10-31T12:28:23;14.40;94.80
18779;DHT22;9518;51.720;14.384;2023-10-31T12:30:51;14.30;95.30
18779;DHT22;9518;51.720;14.384;2023-10-31T12:33:20;14.20;94.30
18779;DHT22;9518;51.720;14.384;2023-10-31T12:35:54;14.20;95.60
18779;DHT22;9518;51.720;14.384;2023-10-31T12:38:23;14.10;95.50
18779;DHT22;9518;51.720;14.384;2023-10-31T12:40:52;14.30;95.60
18779;DHT22;9518;51.720;14.384;2023-10-31T12:43:20;14.30;95.50
18779;DHT22;9518;51.720;14.384;2023-10-31T12:45:47;14.20;95.50
18779;DHT22;9518;51.720;14.384;2023-10-31T12:48:14;14.10;95.20
18779;DHT22;9518;51.720;14.384;2023-10-31T12:50:41;14.10;95.10
18779;DHT22;9518;51.720;14.384;2023-10-31T12:53:09;14.10;95.50
18779;DHT22;9518;51.720;14.384;2023-10-31T12:55:41;14.10;95.20
18779;DHT22;9518;51.720;14.384;2023-10-31T12:58:20;14.20;95.40
18779;DHT22;9518;51.720;14.384;2023-10-31T13:00:47;14.20;95.40
18779;DHT22;9518;51.720;14.384;2023-10-31T13:03:15;14.20;95.20
18779;DHT22;9518;51.720;14.384;2023-10-31T13:05:42;14.10;95.80
18779;DHT22;9518;51.720;14.384;2023-10-31T13:08:14;14.00;95.50
18779;DHT22;9518;51.720;14.384;2023-10-31T13:10:41;14.00;96.40
18779;DHT22;9518;51.720;14.384;2023-10-31T13:13:09;14.00;96.00
18779;DHT22;9518;51.720;14.384;2023-10-31T13:15:39;14.00;96.00
18779;DHT22;9518;51.720;14.384;2023-10-31T13:18:07;14.00;95.50
18779;DHT22;9518;51.720;14.384;2023-10-31T13:20:36;14.00;95.70
18779;DHT22;9518;51.720;14.384;2023-10-31T13:23:06;14.10;95.30
18779;DHT22;9518;51.720;14.384;2023-10-31T13:25:33;14.10;96.00
18779;DHT22;9518;51.720;14.384;2023-10-31T13:28:01;14.00;95.00
18779;DHT22;9518;51.720;14.384;2023-10-31T13:30:29;14.00;95.80
18779;DHT22;9518;51.720;14.384;2023-10-31T13:32:58;14.00;95.80
18779;DHT22;9518;51.720;14.384;2023-10-31T13:35:25;14.00;95.60
18779;DHT22;9518;51.720;14.384;2023-10-31T13:37:55;14.00;96.10
18779;DHT22;9518;51.720;14.384;2023-10-31T13:40:22;13.90;96.70
18779;DHT22;9518;51.720;14.384;2023-10-31T13:42:49;13.90;96.00
18779;DHT22;9518;51.720;14.384;2023-10-31T13:45:16;13.90;97.00
18779;DHT22;9518;51.720;14.384;2023-10-31T13:47:44;13.90;96.60
18779;DHT22;9518;51.720;14.384;2023-10-31T13:50:13;13.90;97.00
18779;DHT22;9518;51.720;14.384;2023-10-31T13:52:41;13.90;97.60
18779;DHT22;9518;51.720;14.384;2023-10-31T13:55:08;13.80;97.20
18779;DHT22;9518;51.720;14.384;2023-10-31T13:57:35;13.70;98.20
18779;DHT22;9518;51.720;14.384;2023-10-31T14:00:03;13.60;98.60
18779;DHT22;9518;51.720;14.384;2023-10-31T14:02:31;13.50;99.50
18779;DHT22;9518;51.720;14.384;2023-10-31T14:04:58;13.40;99.60
18779;DHT22;9518;51.720;14.384;2023-10-31T14:07:27;13.40;99.70
18779;DHT22;9518;51.720;14.384;2023-10-31T14:09:54;13.40;99.90
18779;DHT22;9518;51.720;14.384;2023-10-31T14:12:22;13.30;99.90
18779;DHT22;9518;51.720;14.384;2023-10-31T14:14:51;13.30;99.90
18779;DHT22;9518;51.720;14.384;2023-10-31T14:17:18;13.30;99.90
18779;DHT22;9518;51.720;14.384;2023-10-31T14:19:48;13.20;99.90
18779;DHT22;9518;51.720;14.384;2023-10-31T14:22:15;13.20;99.90
18779;DHT22;9518;51.720;14.384;2023-10-31T14:24:44;13.10;99.90
18779;DHT22;9518;51.720;14.384;2023-10-31T14:27:12;13.00;99.90
18779;DHT22;9518;51.720;14.384;2023-10-31T14:29:39;13.00;99.90
18779;DHT22;9518;51.720;14.384;2023-10-31T14:32:07;12.90;99.90
18779;DHT22;9518;51.720;14.384;2023-10-31T14:34:34;12.80;99.90
18779;DHT22;9518;51.720;14.384;2023-10-31T14:37:01;12.70;99.90
18779;DHT22;9518;51.720;14.384;2023-10-31T14:39:29;12.50;99.90
18779;DHT22;9518;51.720;14.384;2023-10-31T14:41:58;12.40;99.90
18779;DHT22;9518;51.720;14.384;2023-10-31T14:44:26;12.30;99.90
18779;DHT22;9518;51.720;14.384;2023-10-31T14:46:53;12.30;99.90
18779;DHT22;9518;51.720;14.384;2023-10-31T14:49:20;12.40;99.90
18779;DHT22;9518;51.720;14.384;2023-10-31T14:51:48;12.50;99.90
18779;DHT22;9518;51.720;14.384;2023-10-31T14:54:15;12.40;99.90
18779;DHT22;9518;51.720;14.384;2023-10-31T14:56:43;12.40;99.90
18779;DHT22;9518;51.720;14.384;2023-10-31T14:59:12;12.40;99.90
18779;DHT22;9518;51.720;14.384;2023-10-31T15:01:39;12.40;99.90
18779;DHT22;9518;51.720;14.384;2023-10-31T15:04:06;12.40;99.90
18779;DHT22;9518;51.720;14.384;2023-10-31T15:06:33;12.30;99.90
18779;DHT22;9518;51.720;14.384;2023-10-31T15:09:00;12.30;99.90
18779;DHT22;9518;51.720;14.384;2023-10-31T15:11:27;12.30;99.90
18779;DHT22;9518;51.720;14.384;2023-10-31T15:13:55;12.30;99.90
18779;DHT22;9518;51.720;14.384;2023-10-31T15:16:24;12.30;99.90
18779;DHT22;9518;51.720;14.384;2023-10-31T15:18:51;12.30;99.90
18779;DHT22;9518;51.720;14.384;2023-10-31T15:21:18;12.30;99.90
18779;DHT22;9518;51.720;14.384;2023-10-31T15:23:47;12.30;99.90
18779;DHT22;9518;51.720;14.384;2023-10-31T15:26:14;12.20;99.90
18779;DHT22;9518;51.720;14.384;2023-10-31T15:28:43;12.00;99.90
18779;DHT22;9518;51.720;14.384;2023-10-31T15:31:12;11.90;99.90
18779;DHT22;9518;51.720;14.384;2023-10-31T15:33:41;11.80;99.90
18779;DHT22;9518;51.720;14.384;2023-10-31T15:36:10;11.70;1.00
18779;DHT22;9518;51.720;14.384;2023-10-31T15:38:38;11.80;99.90